Time;durP1;ratioP1;P1;durP2;ratioP2;P2;SDS_P1;SDS_P2;PMS_P1;PMS_P2;Temp;Humidity;BMP_temperature;BMP_pressure;BME280_temperature;BME280_humidity;BME280_pressure;Samples;Min_cycle;Max_cycle;Signal;HPM_P1;HPM_P2
2023/07/02 00:00:18;;;;;;;19.48;7.65;;;;;;;;;;4898359;28;94245;-80
2023/07/02 00:02:45;;;;;;;24.73;6.43;;;;;;;;;;4908735;28;92902;-80
2023/07/02 00:05:12;;;;;;;18.77;5.78;;;;;;;;;;4926029;28;92388;-80
2023/07/02 00:07:38;;;;;;;19.30;6.43;;;;;;;;;;4900273;28;92438;-81
2023/07/02 00:10:05;;;;;;;20.33;6.18;;;;;;;;;;4904616;28;94685;-81
2023/07/02 00:12:32;;;;;;;19.73;6.28;;;;;;;;;;4921899;28;92648;-81
2023/07/02 00:14:58;;;;;;;18.33;6.55;;;;;;;;;;4914983;28;93336;-81
2023/07/02 00:17:25;;;;;;;17.27;6.30;;;;;;;;;;4919908;28;93128;-81
2023/07/02 00:19:51;;;;;;;21.98;6.53;;;;;;;;;;4917766;28;93489;-81
2023/07/02 00:22:19;;;;;;;19.40;6.45;;;;;;;;;;4905720;28;94698;-81
2023/07/02 00:24:45;;;;;;;16.02;5.40;;;;;;;;;;4891627;28;95098;-80
2023/07/02 00:27:12;;;;;;;9.70;4.95;;;;;;;;;;4919320;28;94727;-80
2023/07/02 00:29:39;;;;;;;18.98;7.05;;;;;;;;;;4899612;28;92739;-81
2023/07/02 00:32:05;;;;;;;20.42;6.28;;;;;;;;;;4913671;28;92396;-81
2023/07/02 00:34:32;;;;;;;15.63;6.68;;;;;;;;;;4898288;28;93949;-80
2023/07/02 00:36:59;;;;;;;18.95;5.65;;;;;;;;;;4886176;28;94873;-81
2023/07/02 00:39:26;;;;;;;16.00;6.03;;;;;;;;;;4919464;28;92234;-81
2023/07/02 00:41:52;;;;;;;16.63;6.55;;;;;;;;;;4912693;28;92277;-81
2023/07/02 00:44:19;;;;;;;23.65;7.10;;;;;;;;;;4914122;28;94896;-81
2023/07/02 00:46:50;;;;;;;13.00;5.80;;;;;;;;;;4915358;28;94718;-81
2023/07/02 00:49:18;;;;;;;13.50;6.45;;;;;;;;;;4893930;28;96198;-81
2023/07/02 00:51:44;;;;;;;12.50;5.90;;;;;;;;;;4908546;28;92548;-80
2023/07/02 00:54:14;;;;;;;12.23;6.20;;;;;;;;;;4909729;28;92401;-80
2023/07/02 00:56:41;;;;;;;13.63;5.53;;;;;;;;;;4915940;28;93456;-80
2023/07/02 00:59:07;;;;;;;15.80;5.10;;;;;;;;;;4902589;28;94991;-80
2023/07/02 01:01:37;;;;;;;16.67;6.10;;;;;;;;;;4893932;28;95724;-80
2023/07/02 01:04:07;;;;;;;15.95;6.90;;;;;;;;;;4900587;28;92134;-81
2023/07/02 01:06:35;;;;;;;20.50;6.05;;;;;;;;;;4915796;28;92389;-81
2023/07/02 01:09:03;;;;;;;14.50;5.35;;;;;;;;;;4923133;28;93041;-81
2023/07/02 01:11:29;;;;;;;22.88;6.40;;;;;;;;;;4914763;28;94793;-81
2023/07/02 01:14:04;;;;;;;16.75;6.53;;;;;;;;;;4904558;28;94115;-81
2023/07/02 01:16:32;;;;;;;17.58;6.00;;;;;;;;;;4909573;28;92285;-81
2023/07/02 01:19:03;;;;;;;15.38;6.45;;;;;;;;;;4925993;28;92412;-80
2023/07/02 01:21:32;;;;;;;23.50;6.35;;;;;;;;;;4901154;28;93188;-82
2023/07/02 01:24:02;;;;;;;10.38;5.50;;;;;;;;;;4903347;28;95165;-81
2023/07/02 01:26:30;;;;;;;16.88;5.65;;;;;;;;;;4926126;28;94369;-81
2023/07/02 01:28:57;;;;;;;25.98;6.32;;;;;;;;;;4913335;28;92061;-81
2023/07/02 01:31:25;;;;;;;25.55;7.38;;;;;;;;;;4913562;28;92491;-81
2023/07/02 01:33:52;;;;;;;22.38;7.53;;;;;;;;;;4925591;28;92643;-81
2023/07/02 01:36:19;;;;;;;23.88;6.65;;;;;;;;;;4901773;28;96456;-81
2023/07/02 01:38:45;;;;;;;24.40;7.82;;;;;;;;;;4915548;28;92402;-81
2023/07/02 01:41:12;;;;;;;15.13;6.20;;;;;;;;;;4918565;28;92103;-80
2023/07/02 01:43:38;;;;;;;15.57;6.72;;;;;;;;;;4901575;28;93004;-81
2023/07/02 01:46:05;;;;;;;18.80;6.50;;;;;;;;;;4915131;28;92218;-81
2023/07/02 01:48:32;;;;;;;23.42;6.63;;;;;;;;;;4918858;28;92442;-81
2023/07/02 01:50:58;;;;;;;18.13;6.18;;;;;;;;;;4904895;28;94080;-81
2023/07/02 01:53:25;;;;;;;13.23;6.45;;;;;;;;;;4905039;28;94032;-81
2023/07/02 01:55:51;;;;;;;20.45;7.15;;;;;;;;;;4920337;28;92267;-81
2023/07/02 01:58:18;;;;;;;22.70;7.68;;;;;;;;;;4902843;28;92329;-81
2023/07/02 02:00:45;;;;;;;23.23;7.20;;;;;;;;;;4900688;28;94712;-81
2023/07/02 02:03:12;;;;;;;20.08;7.18;;;;;;;;;;4909396;28;92638;-80
2023/07/02 02:05:39;;;;;;;18.30;6.38;;;;;;;;;;4914953;28;92861;-80
2023/07/02 02:08:06;;;;;;;19.88;7.70;;;;;;;;;;4897116;28;92407;-80
2023/07/02 02:10:32;;;;;;;22.98;6.95;;;;;;;;;;4914654;28;92492;-80
2023/07/02 02:12:59;;;;;;;18.17;7.90;;;;;;;;;;4904474;28;95204;-80
2023/07/02 02:15:25;;;;;;;15.50;6.72;;;;;;;;;;4896749;28;94063;-80
2023/07/02 02:17:52;;;;;;;26.48;8.93;;;;;;;;;;4916402;28;92084;-79
2023/07/02 02:20:19;;;;;;;24.20;7.38;;;;;;;;;;4913387;28;92429;-80
2023/07/02 02:22:45;;;;;;;16.52;7.28;;;;;;;;;;4881595;28;93102;-80
2023/07/02 02:25:12;;;;;;;23.65;9.07;;;;;;;;;;4883025;28;94992;-79
2023/07/02 02:27:38;;;;;;;21.30;7.88;;;;;;;;;;4912693;28;93903;-79
2023/07/02 02:30:07;;;;;;;22.98;7.25;;;;;;;;;;4903486;28;94078;-80
2023/07/02 02:32:34;;;;;;;23.00;7.65;;;;;;;;;;4892453;28;92494;-80
2023/07/02 02:35:01;;;;;;;22.42;7.40;;;;;;;;;;4889617;28;93833;-80
2023/07/02 02:37:29;;;;;;;20.45;7.03;;;;;;;;;;4904312;28;95473;-81
2023/07/02 02:39:57;;;;;;;28.33;7.75;;;;;;;;;;4906681;28;92344;-80
2023/07/02 02:42:26;;;;;;;26.60;8.38;;;;;;;;;;4914698;28;92075;-80
2023/07/02 02:44:52;;;;;;;25.77;8.32;;;;;;;;;;4904764;28;95388;-80
2023/07/02 02:47:19;;;;;;;24.17;8.05;;;;;;;;;;4907350;28;94891;-80
2023/07/02 02:49:45;;;;;;;26.73;8.25;;;;;;;;;;4910392;28;97678;-80
2023/07/02 02:52:14;;;;;;;28.98;8.30;;;;;;;;;;4909117;28;95533;-80
2023/07/02 02:54:41;;;;;;;17.20;7.07;;;;;;;;;;4912599;28;93726;-80
2023/07/02 02:57:07;;;;;;;24.40;8.45;;;;;;;;;;4912444;28;92497;-80
2023/07/02 02:59:33;;;;;;;27.13;8.15;;;;;;;;;;4908601;28;94924;-80
2023/07/02 03:02:00;;;;;;;21.50;7.38;;;;;;;;;;4914568;28;94811;-80
2023/07/02 03:04:27;;;;;;;26.45;7.20;;;;;;;;;;4904127;28;92573;-80
2023/07/02 03:06:53;;;;;;;35.72;9.45;;;;;;;;;;4921087;28;92044;-80
2023/07/02 03:09:20;;;;;;;22.90;8.20;;;;;;;;;;4906234;28;95883;-80
2023/07/02 03:11:47;;;;;;;29.20;8.90;;;;;;;;;;4906370;28;94827;-80
2023/07/02 03:14:14;;;;;;;25.67;9.85;;;;;;;;;;4924101;28;94619;-80
2023/07/02 03:16:42;;;;;;;30.27;9.77;;;;;;;;;;4920755;28;92450;-80
2023/07/02 03:19:08;;;;;;;21.00;8.63;;;;;;;;;;4914762;28;93106;-80
2023/07/02 03:21:35;;;;;;;28.38;10.02;;;;;;;;;;4889523;28;94167;-80
2023/07/02 03:24:03;;;;;;;32.55;9.90;;;;;;;;;;4918601;28;92271;-80
2023/07/02 03:26:29;;;;;;;32.30;8.98;;;;;;;;;;4907851;28;92528;-81
2023/07/02 03:28:55;;;;;;;34.28;9.52;;;;;;;;;;4924473;28;92466;-80
2023/07/02 03:31:22;;;;;;;35.20;9.40;;;;;;;;;;4925027;28;94176;-80
2023/07/02 03:33:49;;;;;;;23.38;8.40;;;;;;;;;;4927645;28;92435;-80
2023/07/02 03:36:15;;;;;;;19.38;8.52;;;;;;;;;;4906386;28;92379;-80
2023/07/02 03:38:42;;;;;;;26.85;9.20;;;;;;;;;;4920221;28;94790;-81
2023/07/02 03:41:08;;;;;;;26.33;9.20;;;;;;;;;;4920430;28;94080;-80
2023/07/02 03:43:35;;;;;;;20.75;7.65;;;;;;;;;;4922270;28;92650;-80
2023/07/02 03:46:02;;;;;;;22.13;8.85;;;;;;;;;;4904719;28;92993;-80
2023/07/02 03:48:28;;;;;;;24.60;8.43;;;;;;;;;;4909238;28;92539;-80
2023/07/02 03:50:55;;;;;;;28.48;9.48;;;;;;;;;;4923430;28;92195;-80
2023/07/02 03:53:21;;;;;;;26.00;9.73;;;;;;;;;;4920650;28;92429;-80
2023/07/02 03:55:48;;;;;;;27.73;9.93;;;;;;;;;;4923778;28;92293;-80
2023/07/02 03:58:14;;;;;;;30.15;10.02;;;;;;;;;;4912985;28;94545;-80
2023/07/02 04:00:41;;;;;;;28.05;9.10;;;;;;;;;;4924598;28;92327;-80
2023/07/02 04:03:08;;;;;;;22.77;8.70;;;;;;;;;;4909610;28;95417;-80
2023/07/02 04:05:35;;;;;;;23.33;8.98;;;;;;;;;;4905794;28;96066;-80
2023/07/02 04:08:01;;;;;;;24.52;8.35;;;;;;;;;;4901177;28;92440;-80
2023/07/02 04:10:27;;;;;;;37.10;9.38;;;;;;;;;;4907430;28;94506;-80
2023/07/02 04:12:54;;;;;;;27.40;10.18;;;;;;;;;;4911936;28;93880;-80
2023/07/02 04:15:21;;;;;;;32.17;10.55;;;;;;;;;;4922739;28;92451;-81
2023/07/02 04:17:47;;;;;;;34.83;8.63;;;;;;;;;;4921923;28;92222;-81
2023/07/02 04:20:14;;;;;;;35.90;11.20;;;;;;;;;;4918111;28;92074;-81
2023/07/02 04:22:40;;;;;;;34.95;9.48;;;;;;;;;;4924690;28;93193;-80
2023/07/02 04:25:07;;;;;;;32.55;9.63;;;;;;;;;;4924051;28;92336;-81
2023/07/02 04:27:44;;;;;;;35.25;8.27;;;;;;;;;;4903899;28;94681;-81
2023/07/02 04:30:17;;;;;;;39.17;10.45;;;;;;;;;;4921715;28;93463;-81
2023/07/02 04:32:43;;;;;;;42.15;11.85;;;;;;;;;;4893943;28;92450;-81
2023/07/02 04:35:11;;;;;;;38.25;10.05;;;;;;;;;;4912893;28;92216;-80
2023/07/02 04:37:37;;;;;;;34.55;10.02;;;;;;;;;;4891614;28;94061;-80
2023/07/02 04:40:09;;;;;;;28.80;9.52;;;;;;;;;;4912991;28;94016;-81
2023/07/02 04:42:39;;;;;;;29.25;10.05;;;;;;;;;;4924700;28;92586;-80
2023/07/02 04:45:06;;;;;;;32.78;10.20;;;;;;;;;;4922280;28;91786;-81
2023/07/02 04:47:33;;;;;;;36.33;9.93;;;;;;;;;;4924387;28;92492;-80
2023/07/02 04:50:00;;;;;;;26.90;10.02;;;;;;;;;;4889962;28;94128;-80
2023/07/02 04:52:27;;;;;;;35.13;10.07;;;;;;;;;;4918054;28;94877;-80
2023/07/02 04:54:54;;;;;;;29.88;9.82;;;;;;;;;;4899989;28;92461;-80
2023/07/02 04:57:20;;;;;;;25.88;9.45;;;;;;;;;;4915482;28;93408;-80
2023/07/02 04:59:47;;;;;;;28.88;9.68;;;;;;;;;;4901499;28;92458;-80
2023/07/02 05:02:14;;;;;;;36.53;10.95;;;;;;;;;;4905214;28;92423;-80
2023/07/02 05:04:40;;;;;;;32.33;10.10;;;;;;;;;;4897092;28;95002;-80
2023/07/02 05:07:07;;;;;;;39.13;10.93;;;;;;;;;;4898775;28;94159;-80
2023/07/02 05:09:34;;;;;;;24.52;10.30;;;;;;;;;;4912219;28;92571;-80
2023/07/02 05:12:00;;;;;;;30.67;9.25;;;;;;;;;;4909747;28;93582;-80
2023/07/02 05:14:27;;;;;;;34.70;11.95;;;;;;;;;;4896581;28;92577;-80
2023/07/02 05:16:53;;;;;;;42.85;10.50;;;;;;;;;;4900200;28;94902;-79
2023/07/02 05:19:20;;;;;;;24.38;9.55;;;;;;;;;;4904560;28;94623;-80
2023/07/02 05:21:47;;;;;;;31.45;9.00;;;;;;;;;;4901855;28;92116;-80
2023/07/02 05:24:13;;;;;;;29.92;8.55;;;;;;;;;;4915186;28;92613;-80
2023/07/02 05:26:40;;;;;;;27.42;9.95;;;;;;;;;;4890665;28;92570;-80
2023/07/02 05:29:06;;;;;;;27.15;8.90;;;;;;;;;;4916913;28;92153;-80
2023/07/02 05:31:34;;;;;;;27.30;9.15;;;;;;;;;;4909174;28;92223;-80
2023/07/02 05:34:00;;;;;;;40.58;9.90;;;;;;;;;;4914205;28;92878;-80
2023/07/02 05:36:27;;;;;;;33.53;10.25;;;;;;;;;;4914144;28;92608;-80
2023/07/02 05:38:53;;;;;;;32.53;10.93;;;;;;;;;;4900620;28;92454;-80
2023/07/02 05:41:20;;;;;;;28.50;8.80;;;;;;;;;;4915447;28;95380;-80
2023/07/02 05:43:47;;;;;;;31.98;10.60;;;;;;;;;;4912993;28;92549;-80
2023/07/02 05:46:14;;;;;;;31.98;8.88;;;;;;;;;;4920940;28;92301;-80
2023/07/02 05:48:41;;;;;;;39.70;9.23;;;;;;;;;;4896298;28;92908;-80
2023/07/02 05:51:08;;;;;;;32.95;8.52;;;;;;;;;;4914478;28;93955;-80
2023/07/02 05:53:35;;;;;;;29.55;8.32;;;;;;;;;;4907754;28;94031;-81
2023/07/02 05:56:01;;;;;;;36.33;9.73;;;;;;;;;;4907848;28;92428;-80
2023/07/02 05:58:29;;;;;;;27.75;8.60;;;;;;;;;;4914915;28;92135;-80
2023/07/02 06:01:13;;;;;;;40.90;8.70;;;;;;;;;;4917655;28;92325;-80
2023/07/02 06:03:39;;;;;;;29.33;9.30;;;;;;;;;;4894755;28;92416;-80
2023/07/02 06:06:06;;;;;;;30.75;8.98;;;;;;;;;;4897688;28;94741;-80
2023/07/02 06:08:32;;;;;;;42.50;9.73;;;;;;;;;;4914200;28;92367;-79
2023/07/02 06:10:59;;;;;;;29.45;8.73;;;;;;;;;;4913398;28;92117;-80
2023/07/02 06:13:26;;;;;;;26.05;8.15;;;;;;;;;;4920896;28;92954;-80
2023/07/02 06:15:52;;;;;;;30.42;9.60;;;;;;;;;;4906659;28;93050;-80
2023/07/02 06:18:19;;;;;;;28.58;7.47;;;;;;;;;;4927725;28;94578;-80
2023/07/02 06:20:46;;;;;;;24.60;8.82;;;;;;;;;;4901321;28;92992;-80
2023/07/02 06:23:13;;;;;;;28.30;7.65;;;;;;;;;;4909806;28;93315;-80
2023/07/02 06:25:39;;;;;;;28.77;7.10;;;;;;;;;;4920093;28;92417;-81
2023/07/02 06:28:06;;;;;;;18.85;6.95;;;;;;;;;;4904822;28;95648;-80
2023/07/02 06:30:32;;;;;;;26.95;7.05;;;;;;;;;;4908774;28;94402;-81
2023/07/02 06:32:59;;;;;;;21.27;7.18;;;;;;;;;;4899630;28;97592;-80
2023/07/02 06:35:25;;;;;;;26.55;8.02;;;;;;;;;;4923687;28;92504;-80
2023/07/02 06:37:52;;;;;;;26.75;8.00;;;;;;;;;;4914114;28;92229;-80
2023/07/02 06:40:20;;;;;;;23.63;7.05;;;;;;;;;;4883257;28;94466;-80
2023/07/02 06:42:46;;;;;;;23.55;7.60;;;;;;;;;;4904563;28;92418;-80
2023/07/02 06:45:13;;;;;;;25.50;7.63;;;;;;;;;;4895284;28;92392;-80
2023/07/02 06:47:40;;;;;;;14.00;6.00;;;;;;;;;;4916588;28;91910;-81
2023/07/02 06:50:06;;;;;;;23.88;6.15;;;;;;;;;;4924558;28;92477;-80
2023/07/02 06:52:33;;;;;;;25.42;7.30;;;;;;;;;;4917523;28;93091;-80
2023/07/02 06:54:59;;;;;;;26.95;6.63;;;;;;;;;;4914100;28;94842;-80
2023/07/02 06:57:26;;;;;;;17.52;6.65;;;;;;;;;;4923512;28;93299;-80
2023/07/02 06:59:58;;;;;;;17.58;6.53;;;;;;;;;;4917432;28;93072;-81
2023/07/02 07:02:26;;;;;;;17.70;6.00;;;;;;;;;;4890513;28;92903;-81
2023/07/02 07:04:52;;;;;;;17.15;5.47;;;;;;;;;;4915613;28;91988;-80
2023/07/02 07:07:19;;;;;;;15.88;5.55;;;;;;;;;;4890357;28;94942;-80
2023/07/02 07:09:45;;;;;;;27.05;6.07;;;;;;;;;;4929160;28;92398;-80
2023/07/02 07:12:12;;;;;;;22.63;5.70;;;;;;;;;;4921565;28;93728;-80
2023/07/02 07:14:39;;;;;;;20.95;5.43;;;;;;;;;;4921808;28;92156;-79
2023/07/02 07:17:05;;;;;;;21.00;5.13;;;;;;;;;;4903824;28;92640;-80
2023/07/02 07:19:32;;;;;;;25.67;6.00;;;;;;;;;;4912237;28;94952;-79
2023/07/02 07:21:58;;;;;;;30.15;6.55;;;;;;;;;;4917250;28;92521;-80
2023/07/02 07:24:25;;;;;;;22.58;6.63;;;;;;;;;;4885019;28;93520;-80
2023/07/02 07:26:52;;;;;;;26.98;6.15;;;;;;;;;;4905780;28;92409;-81
2023/07/02 07:29:18;;;;;;;26.25;5.20;;;;;;;;;;4917118;28;92936;-80
2023/07/02 07:31:46;;;;;;;22.67;4.88;;;;;;;;;;4917232;28;92832;-79
2023/07/02 07:34:12;;;;;;;23.65;6.07;;;;;;;;;;4916242;28;92517;-79
2023/07/02 07:36:40;;;;;;;27.88;6.43;;;;;;;;;;4920084;28;92768;-80
2023/07/02 07:39:06;;;;;;;18.85;5.63;;;;;;;;;;4908838;28;92324;-81
2023/07/02 07:41:33;;;;;;;14.02;4.75;;;;;;;;;;4922998;28;92452;-80
2023/07/02 07:44:01;;;;;;;19.83;5.60;;;;;;;;;;4903677;28;94862;-80
2023/07/02 07:46:27;;;;;;;20.70;5.20;;;;;;;;;;4908423;28;92250;-79
2023/07/02 07:48:54;;;;;;;22.02;6.05;;;;;;;;;;4898002;28;93905;-80
2023/07/02 07:51:21;;;;;;;15.35;5.78;;;;;;;;;;4898688;28;94180;-79
2023/07/02 07:53:47;;;;;;;19.45;5.40;;;;;;;;;;4896980;28;93160;-81
2023/07/02 07:56:14;;;;;;;17.30;5.43;;;;;;;;;;4915490;28;93103;-80
2023/07/02 07:58:40;;;;;;;19.27;5.10;;;;;;;;;;4910157;28;92360;-79
2023/07/02 08:01:07;;;;;;;17.02;4.78;;;;;;;;;;4906682;28;93387;-79
2023/07/02 08:03:36;;;;;;;12.48;4.13;;;;;;;;;;4917548;28;92833;-80
2023/07/02 08:06:03;;;;;;;16.75;5.00;;;;;;;;;;4892414;28;95455;-79
2023/07/02 08:08:30;;;;;;;13.30;5.30;;;;;;;;;;4918656;28;94682;-80
2023/07/02 08:10:56;;;;;;;18.48;4.47;;;;;;;;;;4921137;28;95772;-81
2023/07/02 08:13:23;;;;;;;20.17;4.80;;;;;;;;;;4919273;28;92288;-82
2023/07/02 08:15:49;;;;;;;17.05;5.80;;;;;;;;;;4921310;28;92289;-80
2023/07/02 08:18:16;;;;;;;18.23;5.25;;;;;;;;;;4910379;28;95140;-80
2023/07/02 08:20:42;;;;;;;10.27;5.25;;;;;;;;;;4916812;28;93019;-81
2023/07/02 08:23:09;;;;;;;14.02;5.90;;;;;;;;;;4916728;28;92266;-80
2023/07/02 08:25:35;;;;;;;14.95;4.93;;;;;;;;;;4917969;28;92596;-80
2023/07/02 08:28:02;;;;;;;14.27;5.03;;;;;;;;;;4918341;28;93333;-80
2023/07/02 08:30:31;;;;;;;18.90;4.82;;;;;;;;;;4913990;28;92485;-80
2023/07/02 08:32:58;;;;;;;14.50;4.78;;;;;;;;;;4894789;28;96466;-79
2023/07/02 08:35:25;;;;;;;16.05;4.38;;;;;;;;;;4910742;28;92218;-79
2023/07/02 08:37:51;;;;;;;17.08;4.75;;;;;;;;;;4901303;28;92413;-80
2023/07/02 08:40:19;;;;;;;15.60;5.55;;;;;;;;;;4896486;28;94338;-81
2023/07/02 08:42:49;;;;;;;11.70;3.80;;;;;;;;;;4906879;28;93792;-80
2023/07/02 08:45:16;;;;;;;13.45;4.00;;;;;;;;;;4907410;28;93402;-79
2023/07/02 08:47:43;;;;;;;16.77;4.93;;;;;;;;;;4918135;28;92378;-80
2023/07/02 08:50:10;;;;;;;14.45;4.45;;;;;;;;;;4914486;28;92136;-80
2023/07/02 08:52:37;;;;;;;10.80;4.72;;;;;;;;;;4904186;28;92411;-79
2023/07/02 08:55:03;;;;;;;13.27;4.50;;;;;;;;;;4911383;28;92290;-81
2023/07/02 08:57:30;;;;;;;17.50;4.82;;;;;;;;;;4916993;28;94960;-78
2023/07/02 08:59:57;;;;;;;14.60;4.50;;;;;;;;;;4899829;28;95824;-80
2023/07/02 09:02:30;;;;;;;21.67;4.90;;;;;;;;;;4901411;28;94639;-80
2023/07/02 09:05:03;;;;;;;11.25;4.20;;;;;;;;;;4927164;28;94098;-79
2023/07/02 09:07:30;;;;;;;14.48;4.10;;;;;;;;;;4905465;28;92390;-80
2023/07/02 09:09:57;;;;;;;15.52;4.75;;;;;;;;;;4916744;28;92500;-79
2023/07/02 09:12:25;;;;;;;17.65;5.28;;;;;;;;;;4912398;28;93379;-80
2023/07/02 09:14:59;;;;;;;11.45;4.38;;;;;;;;;;4893887;28;95737;-80
2023/07/02 09:17:30;;;;;;;14.35;4.32;;;;;;;;;;4903953;28;92316;-81
2023/07/02 09:19:57;;;;;;;13.32;4.15;;;;;;;;;;4918804;28;94362;-81
2023/07/02 09:22:24;;;;;;;13.45;3.63;;;;;;;;;;4909016;28;94438;-79
2023/07/02 09:24:53;;;;;;;11.02;3.92;;;;;;;;;;4890779;28;94650;-79
2023/07/02 09:27:19;;;;;;;6.85;3.17;;;;;;;;;;4912310;28;92323;-80
2023/07/02 09:29:52;;;;;;;11.10;3.50;;;;;;;;;;4894255;28;94449;-80
2023/07/02 09:32:26;;;;;;;7.22;3.15;;;;;;;;;;4917951;28;92024;-79
2023/07/02 09:34:54;;;;;;;19.35;3.25;;;;;;;;;;4913998;28;92510;-79
2023/07/02 09:37:21;;;;;;;13.80;3.40;;;;;;;;;;4915900;28;93684;-79
2023/07/02 09:39:49;;;;;;;8.23;3.97;;;;;;;;;;4918225;28;92129;-79
2023/07/02 09:42:16;;;;;;;9.90;3.08;;;;;;;;;;4905909;28;92470;-79
2023/07/02 09:44:43;;;;;;;18.58;3.00;;;;;;;;;;4920375;28;92948;-79
2023/07/02 09:47:10;;;;;;;7.45;2.80;;;;;;;;;;4915388;28;96534;-79
2023/07/02 09:49:37;;;;;;;9.25;2.88;;;;;;;;;;4904838;28;93939;-80
2023/07/02 09:52:08;;;;;;;5.95;2.72;;;;;;;;;;4923068;28;92849;-79
2023/07/02 09:54:35;;;;;;;15.35;3.67;;;;;;;;;;4900959;28;93756;-80
2023/07/02 09:57:02;;;;;;;7.25;2.83;;;;;;;;;;4922987;28;92420;-80
2023/07/02 09:59:29;;;;;;;9.60;2.60;;;;;;;;;;4909642;28;93169;-81
2023/07/02 10:01:56;;;;;;;12.25;2.75;;;;;;;;;;4904938;28;93143;-80
2023/07/02 10:04:23;;;;;;;9.40;2.28;;;;;;;;;;4918729;28;92227;-80
2023/07/02 10:06:52;;;;;;;7.20;2.30;;;;;;;;;;4919227;28;92326;-82
2023/07/02 10:09:19;;;;;;;5.90;2.58;;;;;;;;;;4895034;28;95104;-81
2023/07/02 10:11:46;;;;;;;6.22;2.90;;;;;;;;;;4912742;28;94959;-79
2023/07/02 10:14:13;;;;;;;5.88;2.75;;;;;;;;;;4921068;28;92538;-79
2023/07/02 10:16:50;;;;;;;5.30;2.42;;;;;;;;;;4926384;28;94955;-80
2023/07/02 10:19:17;;;;;;;5.75;2.85;;;;;;;;;;4913920;28;92511;-80
2023/07/02 10:21:49;;;;;;;2.95;2.20;;;;;;;;;;4910205;28;93990;-79
2023/07/02 10:24:17;;;;;;;8.68;2.92;;;;;;;;;;4910275;28;92787;-80
2023/07/02 10:26:56;;;;;;;5.35;2.53;;;;;;;;;;4896989;28;93521;-80
2023/07/02 10:29:27;;;;;;;3.00;2.10;;;;;;;;;;4922123;28;94164;-80
2023/07/02 10:31:55;;;;;;;5.25;2.65;;;;;;;;;;4917711;28;92466;-79
2023/07/02 10:34:32;;;;;;;8.95;2.75;;;;;;;;;;4918897;28;93045;-78
2023/07/02 10:37:03;;;;;;;5.07;2.22;;;;;;;;;;4877967;28;95009;-78
2023/07/02 10:39:31;;;;;;;5.93;2.38;;;;;;;;;;4914729;28;92533;-79
2023/07/02 10:42:06;;;;;;;4.80;2.45;;;;;;;;;;4914172;28;92469;-80
2023/07/02 10:44:33;;;;;;;8.50;2.92;;;;;;;;;;4913042;28;92344;-79
2023/07/02 10:46:59;;;;;;;5.55;2.63;;;;;;;;;;4900662;28;95008;-79
2023/07/02 10:49:30;;;;;;;9.00;2.50;;;;;;;;;;4902118;28;94832;-80
2023/07/02 10:52:00;;;;;;;7.23;2.47;;;;;;;;;;4920340;28;92984;-79
2023/07/02 10:54:39;;;;;;;12.30;2.58;;;;;;;;;;4920462;28;92020;-79
2023/07/02 10:57:05;;;;;;;6.38;3.15;;;;;;;;;;4906547;28;92098;-80
2023/07/02 10:59:32;;;;;;;6.47;2.50;;;;;;;;;;4910446;28;93349;-80
2023/07/02 11:02:02;;;;;;;6.68;3.03;;;;;;;;;;4918795;28;94917;-80
2023/07/02 11:04:28;;;;;;;5.90;2.80;;;;;;;;;;4920881;28;93962;-80
2023/07/02 11:06:55;;;;;;;8.48;3.20;;;;;;;;;;4923448;28;92485;-79
2023/07/02 11:09:23;;;;;;;14.98;3.70;;;;;;;;;;4919045;28;93078;-79
2023/07/02 11:11:54;;;;;;;11.32;3.55;;;;;;;;;;4914848;28;92120;-79
2023/07/02 11:14:34;;;;;;;9.63;3.07;;;;;;;;;;4922051;28;92555;-79
2023/07/02 11:17:05;;;;;;;14.85;3.67;;;;;;;;;;4893447;28;92484;-79
2023/07/02 11:19:32;;;;;;;7.55;3.03;;;;;;;;;;4913374;28;92206;-79
2023/07/02 11:21:59;;;;;;;14.30;2.90;;;;;;;;;;4920611;28;93025;-79
2023/07/02 11:24:30;;;;;;;9.77;3.70;;;;;;;;;;4915876;28;92778;-78
2023/07/02 11:26:57;;;;;;;9.05;3.30;;;;;;;;;;4914948;28;94772;-78
2023/07/02 11:29:24;;;;;;;5.90;3.05;;;;;;;;;;4902574;28;93326;-79
2023/07/02 11:31:50;;;;;;;7.65;3.15;;;;;;;;;;4908938;28;92518;-79
2023/07/02 11:34:18;;;;;;;8.38;3.20;;;;;;;;;;4919657;28;93516;-78
2023/07/02 11:36:46;;;;;;;7.57;3.33;;;;;;;;;;4919951;28;92865;-79
2023/07/02 11:39:13;;;;;;;6.30;3.28;;;;;;;;;;4910807;28;93182;-80
2023/07/02 11:41:41;;;;;;;11.35;3.33;;;;;;;;;;4902798;28;93489;-79
2023/07/02 11:44:07;;;;;;;12.05;3.58;;;;;;;;;;4921084;28;92335;-79
2023/07/02 11:46:37;;;;;;;9.27;3.92;;;;;;;;;;4919232;28;93720;-79
2023/07/02 11:49:10;;;;;;;11.65;3.42;;;;;;;;;;4921098;28;92513;-79
2023/07/02 11:51:39;;;;;;;7.82;3.50;;;;;;;;;;4916032;28;94970;-80
2023/07/02 11:54:06;;;;;;;14.63;3.10;;;;;;;;;;4909243;28;93326;-80
2023/07/02 11:56:33;;;;;;;10.27;3.53;;;;;;;;;;4909596;28;92252;-79
2023/07/02 11:58:59;;;;;;;6.70;3.50;;;;;;;;;;4905998;28;92965;-80
2023/07/02 12:01:30;;;;;;;8.85;4.10;;;;;;;;;;4921496;28;92370;-79
2023/07/02 12:03:56;;;;;;;6.85;3.33;;;;;;;;;;4923636;28;91881;-80
2023/07/02 12:06:23;;;;;;;7.53;3.30;;;;;;;;;;4921929;28;92581;-79
2023/07/02 12:08:49;;;;;;;13.00;3.85;;;;;;;;;;4902764;28;92223;-78
2023/07/02 12:11:16;;;;;;;10.35;3.28;;;;;;;;;;4923377;28;92571;-81
2023/07/02 12:13:43;;;;;;;19.67;3.35;;;;;;;;;;4915271;28;92459;-80
2023/07/02 12:16:09;;;;;;;38.50;5.43;;;;;;;;;;4890140;28;95423;-79
2023/07/02 12:18:36;;;;;;;10.65;3.63;;;;;;;;;;4902459;28;99933;-80
2023/07/02 12:21:03;;;;;;;7.40;3.08;;;;;;;;;;4922004;28;92423;-79
2023/07/02 12:23:29;;;;;;;10.25;4.25;;;;;;;;;;4907715;28;92591;-79
2023/07/02 12:25:56;;;;;;;8.05;3.40;;;;;;;;;;4907598;28;92555;-80
2023/07/02 12:28:23;;;;;;;11.63;3.42;;;;;;;;;;4920173;28;92492;-80
2023/07/02 12:30:49;;;;;;;8.93;3.70;;;;;;;;;;4909450;28;92878;-80
2023/07/02 12:33:16;;;;;;;16.63;4.63;;;;;;;;;;4903135;28;92256;-80
2023/07/02 12:35:45;;;;;;;8.02;3.55;;;;;;;;;;4922383;28;92832;-79
2023/07/02 12:38:12;;;;;;;11.18;4.57;;;;;;;;;;4920507;28;92363;-78
2023/07/02 12:40:39;;;;;;;8.88;3.75;;;;;;;;;;4900047;28;96658;-79
2023/07/02 12:43:05;;;;;;;12.90;4.05;;;;;;;;;;4921070;28;92897;-80
2023/07/02 12:45:32;;;;;;;8.38;3.63;;;;;;;;;;4920423;28;92422;-79
2023/07/02 12:47:58;;;;;;;21.95;4.00;;;;;;;;;;4919163;28;93170;-79
2023/07/02 12:50:25;;;;;;;16.48;3.90;;;;;;;;;;4921110;28;92521;-80
2023/07/02 12:52:52;;;;;;;9.98;3.75;;;;;;;;;;4921781;28;92443;-80
2023/07/02 12:55:18;;;;;;;11.85;3.83;;;;;;;;;;4924277;28;93195;-79
2023/07/02 12:57:45;;;;;;;8.45;4.20;;;;;;;;;;4913925;28;92180;-80
2023/07/02 13:00:12;;;;;;;10.32;4.18;;;;;;;;;;4922878;28;92418;-80
2023/07/02 13:02:38;;;;;;;8.52;3.90;;;;;;;;;;4908841;28;92886;-80
2023/07/02 13:05:25;;;;;;;10.52;3.50;;;;;;;;;;4922037;28;94770;-80
2023/07/02 13:07:51;;;;;;;6.25;3.10;;;;;;;;;;4910490;28;93149;-79
2023/07/02 13:10:18;;;;;;;17.67;4.22;;;;;;;;;;4922086;28;92414;-79
2023/07/02 13:12:45;;;;;;;9.23;4.18;;;;;;;;;;4911180;28;94153;-80
2023/07/02 13:15:12;;;;;;;11.02;4.50;;;;;;;;;;4918338;28;91939;-80
2023/07/02 13:17:38;;;;;;;12.57;4.53;;;;;;;;;;4900904;28;92380;-81
2023/07/02 13:20:05;;;;;;;8.35;3.90;;;;;;;;;;4918568;28;95063;-79
2023/07/02 13:22:32;;;;;;;9.43;3.85;;;;;;;;;;4918087;28;92143;-80
2023/07/02 13:24:58;;;;;;;8.63;3.85;;;;;;;;;;4923470;28;92420;-80
2023/07/02 13:27:28;;;;;;;4.40;3.35;;;;;;;;;;4892142;28;95746;-81
2023/07/02 13:29:54;;;;;;;6.80;3.55;;;;;;;;;;4915907;28;94852;-79
2023/07/02 13:32:21;;;;;;;8.35;3.53;;;;;;;;;;4920468;28;92466;-80
2023/07/02 13:34:47;;;;;;;16.83;4.85;;;;;;;;;;4920895;28;92226;-78
2023/07/02 13:37:17;;;;;;;10.90;3.90;;;;;;;;;;4922343;28;92098;-80
2023/07/02 13:39:44;;;;;;;9.90;3.78;;;;;;;;;;4915354;28;92406;-80
2023/07/02 13:42:11;;;;;;;8.00;3.70;;;;;;;;;;4921337;28;92876;-80
2023/07/02 13:44:38;;;;;;;10.88;3.90;;;;;;;;;;4903545;28;92336;-80
2023/07/02 13:47:04;;;;;;;10.85;4.40;;;;;;;;;;4907764;28;94540;-79
2023/07/02 13:49:31;;;;;;;13.00;4.32;;;;;;;;;;4907058;28;92270;-81
2023/07/02 13:51:58;;;;;;;9.18;4.05;;;;;;;;;;4917163;28;92429;-81
2023/07/02 13:54:25;;;;;;;11.07;4.00;;;;;;;;;;4906014;28;94953;-80
2023/07/02 13:56:52;;;;;;;13.40;3.67;;;;;;;;;;4905289;28;96447;-81
2023/07/02 13:59:19;;;;;;;7.43;3.15;;;;;;;;;;4910125;28;92364;-80
2023/07/02 14:01:46;;;;;;;7.78;4.00;;;;;;;;;;4919468;28;93120;-80
2023/07/02 14:04:13;;;;;;;8.10;4.03;;;;;;;;;;4911594;28;92760;-81
2023/07/02 14:06:40;;;;;;;8.77;4.47;;;;;;;;;;4907427;28;92489;-80
2023/07/02 14:09:07;;;;;;;9.75;4.47;;;;;;;;;;4908135;28;92455;-80
2023/07/02 14:11:34;;;;;;;9.35;4.40;;;;;;;;;;4923264;28;91638;-80
2023/07/02 14:14:01;;;;;;;11.02;4.70;;;;;;;;;;4925649;28;92180;-80
2023/07/02 14:16:27;;;;;;;7.90;4.90;;;;;;;;;;4889655;28;94663;-80
2023/07/02 14:18:54;;;;;;;12.35;4.03;;;;;;;;;;4921536;28;95479;-80
2023/07/02 14:21:21;;;;;;;9.95;4.30;;;;;;;;;;4907214;28;94948;-80
2023/07/02 14:23:47;;;;;;;10.75;4.50;;;;;;;;;;4922857;28;93348;-80
2023/07/02 14:26:14;;;;;;;12.00;4.72;;;;;;;;;;4915761;28;92094;-80
2023/07/02 14:28:40;;;;;;;11.13;4.55;;;;;;;;;;4911155;28;92522;-81
2023/07/02 14:31:07;;;;;;;9.70;4.60;;;;;;;;;;4916056;28;92416;-81